• Join FlightAware (Why Join?)
  • Login
  • US Flag 
Rudolph Flight #1: Scheduled 
11:42PM EST


 

Airport Tracker/Info


-or-


 

Live Flight TrackerFlight Track Log ✈ RPA3253 ✈ 12-Jun-2013 ✈ KCLT - KMSY

Flight Track Log - Related Links

Times and Time Zones

All times are in EDT time to prevent confusion due to time zone crossing. See the RPA3253 flight status page for this flight to view local times or setup timezone preferences in your user account.

Time Position Orientation Groundspeed Altitude Reporting Facility
EDT Latitude Longitude Course Direction KTS MPH feet Rate Location/Type
10:31PM 35.1869 -80.9511 251° West 165 190 1,600  Level Atlanta Center
10:32PM 35.1392 -80.9553 184° South 192 221 2,800 1,440 Climbing Atlanta Center
10:33PM 35.2667 -81.1784 270° West  Level FlightAware Approximate
10:33PM 35.0881 -80.9928 211° Southwest 260 299 4,400  Level Atlanta Center
10:33PM 35.0933 -81.0383 278° West 276 318 5,700 2,220 Climbing Atlanta Center
10:34PM 35.1976 -81.2463 199° South  Level FlightAware Approximate
10:34PM 35.1047 -81.0836 287° West 275 316 6,900  Level Atlanta Center
10:34PM 35.1144 -81.1417 282° West 281 323 7,900 1,380 Climbing Atlanta Center
10:35PM 35.0970 -81.2799 192° South  Level FlightAware Approximate
10:35PM 35.1250 -81.2328 278° West 293 337 9,000  Level Atlanta Center
10:36PM 35.0535 -81.3877 251° West  Level FlightAware Approximate
10:36PM 35.0917 -81.3278 247° West 293 337 10,700  Level Atlanta Center
10:37PM 35.0500 -81.4356 245° Southwest 334 384 12,500 1,920 Climbing Atlanta Center
10:38PM 35.0128 -81.5458 248° West 353 406 14,600 2,100 Climbing Atlanta Center
10:39PM 34.9756 -81.6636 249° West 360 414 16,700 1,620 Climbing Atlanta Center
10:41PM 34.8939 -81.8811 245° Southwest 373 429 19,500 1,440 Climbing Atlanta Center
10:42PM 34.8208 -82.0019 234° Southwest 389 448 21,100 1,440 Climbing Atlanta Center
10:43PM 34.7581 -82.1147 236° Southwest 407 468 22,400 1,200 Climbing Atlanta Center
10:44PM 34.6908 -82.2300 235° Southwest 413 475 23,500 1,080 Climbing Atlanta Center
10:45PM 34.6258 -82.3475 236° Southwest 418 481 24,600 1,020 Climbing Atlanta Center
10:46PM 34.5544 -82.4700 235° Southwest 436 502 25,600 660 Climbing Atlanta Center
10:47PM 34.4850 -82.5922 235° Southwest 441 507 26,000 180 Climbing Atlanta Center
10:48PM 34.4111 -82.7144 234° Southwest 451 519 26,000  Level Atlanta Center
10:49PM 34.3414 -82.8364 235° Southwest 451 519 26,000  Level Atlanta Center
10:50PM 34.2694 -82.9578 234° Southwest 456 525 26,000  Level Atlanta Center
10:51PM 34.1997 -83.0819 236° Southwest 451 519 26,000  Level Atlanta Center
10:52PM 34.1336 -83.1881 233° Southwest 451 519 26,000  Level Atlanta Center
10:53PM 34.0633 -83.3117 236° Southwest 456 525 26,000  Level Atlanta Center
10:54PM 33.9931 -83.4375 236° Southwest 456 525 26,000  Level Atlanta Center
10:55PM 33.9186 -83.5556 233° Southwest 456 525 26,000  Level Atlanta Center
10:56PM 33.8458 -83.6786 235° Southwest 456 525 26,000  Level Atlanta Center
10:57PM 33.7669 -83.8139 235° Southwest 456 525 26,000  Level Atlanta Center
10:58PM 33.6961 -83.9364 235° Southwest 456 525 26,000  Level Atlanta Center
10:59PM 33.6211 -84.0589 234° Southwest 456 525 26,000  Level Atlanta Center
11:00PM 33.5478 -84.1808 234° Southwest 456 525 26,000  Level Atlanta Center
11:01PM 33.4725 -84.3028 234° Southwest 456 525 26,000  Level Atlanta Center
11:02PM 33.4011 -84.4269 235° Southwest 456 525 26,000  Level Atlanta Center
11:03PM 33.3342 -84.5361 234° Southwest 456 525 26,000  Level Atlanta Center
11:04PM 33.2606 -84.6600 235° Southwest 451 519 26,000  Level Atlanta Center
11:05PM 33.1889 -84.7786 234° Southwest 451 519 26,000  Level Atlanta Center
11:06PM 33.1169 -84.8969 234° Southwest 451 519 26,000  Level Atlanta Center
11:07PM 33.0431 -85.0178 234° Southwest 451 519 26,000  Level Atlanta Center
11:08PM 32.9669 -85.1356 232° Southwest 451 519 26,000  Level Atlanta Center
11:09PM 32.8864 -85.2633 233° Southwest 451 519 26,000  Level Atlanta Center
11:10PM 32.8142 -85.3833 234° Southwest 456 525 26,000  Level Atlanta Center
11:11PM 32.7397 -85.5008 233° Southwest 456 525 26,000  Level Atlanta Center
11:12PM 32.6653 -85.6231 234° Southwest 456 525 26,000  Level Atlanta Center
11:13PM 32.5906 -85.7400 233° Southwest 456 525 26,000  Level Atlanta Center
11:14PM 32.5181 -85.8544 233° Southwest 456 525 26,000  Level Atlanta Center
11:15PM 32.4411 -85.9708 232° Southwest 456 525 26,000  Level Atlanta Center
11:16PM 32.3661 -86.0922 234° Southwest 456 525 26,000  Level Atlanta Center
11:17PM 32.2892 -86.2083 232° Southwest 456 525 26,000  Level Atlanta Center
11:18PM 32.2181 -86.3319 236° Southwest 456 525 26,000  Level Atlanta Center
11:19PM 32.1428 -86.4428 231° Southwest 456 525 26,000  Level Atlanta Center
11:20PM 32.0633 -86.5533 230° Southwest 456 525 26,000  Level Atlanta Center
11:21PM 31.9817 -86.6636 229° Southwest 456 525 26,000  Level Atlanta Center
11:22PM 31.9044 -86.7642 228° Southwest 456 525 26,000  Level Atlanta Center
11:23PM 31.8247 -86.8767 230° Southwest 451 519 26,000  Level Atlanta Center
11:24PM 31.7428 -86.9889 229° Southwest 456 525 26,000  Level Atlanta Center
11:26PM 31.5728 -87.2242 230° Southwest 451 519 26,000  Level Houston Center
11:27PM 31.4886 -87.3339 228° Southwest 452 520 26,000  Level Houston Center
11:28PM 31.4056 -87.4450 229° Southwest 456 525 26,000  Level Houston Center
11:29PM 31.3233 -87.5569 229° Southwest 454 522 26,000  Level Houston Center
11:30PM 31.2408 -87.6697 229° Southwest 456 525 26,000  Level Houston Center
11:31PM 31.1478 -87.7964 229° Southwest 457 526 26,000  Level Houston Center
11:32PM 31.0647 -87.9072 229° Southwest 455 524 26,000  Level Houston Center
11:33PM 30.9811 -88.0192 229° Southwest 457 526 26,000  Level Houston Center
11:34PM 30.8964 -88.1303 228° Southwest 459 528 26,000  Level Houston Center
11:35PM 30.8114 -88.2417 228° Southwest 460 529 26,000  Level Houston Center
11:37PM 30.7308 -88.3533 230° Southwest 453 521 26,000  Level Houston Center
11:38PM 30.6733 -88.4744 241° Southwest 452 520 26,000  Level Houston Center
11:39PM 30.6042 -88.6311 243° Southwest 453 521 26,000  Level Houston Center
11:40PM 30.5456 -88.7628 243° Southwest 457 526 26,000 -780 Level Houston Center
11:41PM 30.4875 -88.8928 243° Southwest 456 525 24,500 -1,740 Descending Houston Center
11:42PM 30.4406 -88.9994 243° Southwest 443 510 22,500 -2,100 Descending Houston Center
11:43PM 30.3903 -89.1200 244° Southwest 419 482 20,300 -2,520 Descending Houston Center
11:43PM 30.3619 -89.1950 246° West 413 475 19,000 -2,580 Descending Houston Center
11:44PM 30.3361 -89.2661 247° West 411 473 17,700 -1,620 Descending Houston Center
11:45PM 30.2964 -89.3825 248° West 392 451 16,400 -660 Descending Houston Center
11:46PM 30.2697 -89.5017 256° West 384 442 16,400 -120 Level Houston Center
11:47PM 30.2406 -89.6217 254° West 384 442 16,200 -960 Descending Houston Center
11:48PM 30.2178 -89.7317 257° West 345 397 14,500 -2,160 Descending Houston Center
11:49PM 30.2022 -89.8344 260° West 323 372 11,900 -2,280 Descending Houston Center
11:50PM 30.1878 -89.9472 262° West 290 334 9,500 -1,980 Descending Houston Center
11:51PM 30.1808 -90.0131 263° West 264 304 7,900 -1,980 Descending Houston Center
11:52PM 30.1728 -90.0928 263° West 251 289 5,900 -1,620 Descending Houston Center
11:53PM 30.1639 -90.1667 262° West 240 276 4,700 -1,260 Descending Houston Center
11:53PM 30.1558 -90.1889 247° West 204 235 4,200 -1,320 Descending Houston Center